createdAt,value
2023-03-07T00:00:26.729Z,8.00
2023-03-07T00:01:58.383Z,8.55
2023-03-07T00:03:30.094Z,9.02
2023-03-07T00:05:01.850Z,9.27
2023-03-07T00:06:33.478Z,8.85
2023-03-07T00:08:05.268Z,9.23
2023-03-07T00:09:37.369Z,7.97
2023-03-07T00:11:09.270Z,8.70
2023-03-07T00:12:41.100Z,8.27
2023-03-07T00:14:12.758Z,9.18
2023-03-07T00:15:44.300Z,8.35
2023-03-07T00:17:16.020Z,9.18
2023-03-07T00:18:48.134Z,7.75
2023-03-07T00:20:19.756Z,8.50
2023-03-07T00:21:51.390Z,8.82
2023-03-07T00:23:23.008Z,6.53
2023-03-07T00:24:54.600Z,8.38
2023-03-07T00:26:27.282Z,7.88
2023-03-07T00:27:58.848Z,7.65
2023-03-07T00:29:30.431Z,7.40
2023-03-07T00:31:04.710Z,8.10
2023-03-07T00:32:36.361Z,8.02
2023-03-07T00:34:08.017Z,8.18
2023-03-07T00:35:39.732Z,8.18
2023-03-07T00:37:11.363Z,8.48
2023-03-07T00:38:43.240Z,8.10
2023-03-07T00:40:15.719Z,8.15
2023-03-07T00:41:47.419Z,8.25
2023-03-07T00:43:19.094Z,9.30
2023-03-07T00:44:50.681Z,9.18
2023-03-07T00:46:24.006Z,8.77
2023-03-07T00:47:56.921Z,9.32
2023-03-07T00:49:28.644Z,9.18
2023-03-07T00:51:00.613Z,8.98
2023-03-07T00:52:34.008Z,8.38
2023-03-07T00:54:05.776Z,9.05
2023-03-07T00:55:37.762Z,7.30
2023-03-07T00:57:09.409Z,9.55
2023-03-07T00:58:41.210Z,8.07
2023-03-07T01:00:13.105Z,7.85
2023-03-07T01:01:44.878Z,9.05
2023-03-07T01:03:16.889Z,8.65
2023-03-07T01:04:48.535Z,9.63
2023-03-07T01:06:23.380Z,8.10
2023-03-07T01:07:55.392Z,9.02
2023-03-07T01:09:27.017Z,8.70
2023-03-07T01:11:00.772Z,8.80
2023-03-07T01:12:33.015Z,8.63
2023-03-07T01:14:06.359Z,7.65
2023-03-07T01:15:40.149Z,8.40
2023-03-07T01:17:11.742Z,8.68
2023-03-07T01:18:44.930Z,9.20
2023-03-07T01:20:17.300Z,7.90
2023-03-07T01:21:49.141Z,9.35
2023-03-07T01:23:20.740Z,8.32
2023-03-07T01:24:52.406Z,8.15
2023-03-07T01:26:27.044Z,8.70
2023-03-07T01:27:59.115Z,8.63
2023-03-07T01:29:33.735Z,9.13
2023-03-07T01:31:05.412Z,7.28
2023-03-07T01:32:37.171Z,8.10
2023-03-07T01:34:09.034Z,9.30
2023-03-07T01:35:41.477Z,9.05
2023-03-07T01:37:13.067Z,8.88
2023-03-07T01:38:45.953Z,7.40
2023-03-07T01:40:18.964Z,8.77
2023-03-07T01:41:50.831Z,9.18
2023-03-07T01:43:32.930Z,8.30
2023-03-07T01:45:11.816Z,9.45
2023-03-07T01:46:55.248Z,8.48
2023-03-07T01:48:30.565Z,7.78
2023-03-07T01:50:06.079Z,7.22
2023-03-07T01:51:41.820Z,8.85
2023-03-07T01:53:15.843Z,9.07
2023-03-07T01:54:52.306Z,9.50
2023-03-07T01:56:26.442Z,8.35
2023-03-07T01:58:03.589Z,9.00
2023-03-07T01:59:40.980Z,7.95
2023-03-07T02:01:14.545Z,8.40
2023-03-07T02:02:51.909Z,8.23
2023-03-07T02:04:34.438Z,7.85
2023-03-07T02:06:10.180Z,8.63
2023-03-07T02:07:49.033Z,8.23
2023-03-07T02:09:24.673Z,8.85
2023-03-07T02:10:56.346Z,8.30
2023-03-07T02:12:28.185Z,8.85
2023-03-07T02:14:00.455Z,7.53
2023-03-07T02:15:34.441Z,7.72
2023-03-07T02:17:06.372Z,8.45
2023-03-07T02:18:43.549Z,8.07
2023-03-07T02:20:25.066Z,8.63
2023-03-07T02:21:56.552Z,9.10
2023-03-07T02:23:49.123Z,7.07
2023-03-07T02:25:29.827Z,9.60
2023-03-07T02:27:01.731Z,8.07
2023-03-07T02:28:34.122Z,9.27
2023-03-07T02:30:08.094Z,8.43
2023-03-07T02:31:40.350Z,8.63
2023-03-07T02:33:12.029Z,8.23
2023-03-07T02:34:44.018Z,9.27
2023-03-07T02:36:30.581Z,6.93
2023-03-07T02:38:13.206Z,9.00
2023-03-07T02:39:47.010Z,7.30
2023-03-07T02:41:23.947Z,7.60
2023-03-07T02:42:57.857Z,8.55
2023-03-07T02:44:29.487Z,10.20
2023-03-07T02:46:01.051Z,8.70
2023-03-07T02:47:32.758Z,8.70
2023-03-07T02:49:05.850Z,7.25
2023-03-07T02:50:37.671Z,9.18
2023-03-07T02:52:09.333Z,9.43
2023-03-07T02:53:41.044Z,8.43
2023-03-07T02:55:12.812Z,9.40
2023-03-07T02:56:50.588Z,8.18
2023-03-07T02:58:22.237Z,9.25
2023-03-07T02:59:53.912Z,8.55
2023-03-07T03:01:25.618Z,9.70
2023-03-07T03:02:57.271Z,8.25
2023-03-07T03:04:29.239Z,8.25
2023-03-07T03:06:00.878Z,7.25
2023-03-07T03:07:32.501Z,8.45
2023-03-07T03:09:06.144Z,7.60
2023-03-07T03:10:37.753Z,8.00
2023-03-07T03:12:09.578Z,7.93
2023-03-07T03:13:41.670Z,8.35
2023-03-07T03:15:13.850Z,8.18
2023-03-07T03:16:45.427Z,8.88
2023-03-07T03:18:17.427Z,8.27
2023-03-07T03:19:49.035Z,8.45
2023-03-07T03:21:20.836Z,8.07
2023-03-07T03:22:53.001Z,9.07
2023-03-07T03:24:25.466Z,7.78
2023-03-07T03:25:59.269Z,7.95
2023-03-07T03:27:33.073Z,7.88
2023-03-07T03:29:05.538Z,8.75
2023-03-07T03:30:37.190Z,8.23
2023-03-07T03:32:09.764Z,6.78
2023-03-07T03:33:44.054Z,7.75
2023-03-07T03:35:15.810Z,8.95
2023-03-07T03:36:47.913Z,8.43
2023-03-07T03:38:19.870Z,8.18
2023-03-07T03:39:54.276Z,7.38
2023-03-07T03:41:26.550Z,8.10
2023-03-07T03:42:58.694Z,9.07
2023-03-07T03:44:30.821Z,7.65
2023-03-07T03:46:03.606Z,9.23
2023-03-07T03:47:35.165Z,7.85
2023-03-07T03:49:06.852Z,7.78
2023-03-07T03:50:38.951Z,8.07
2023-03-07T03:52:10.927Z,8.07
2023-03-07T03:53:42.662Z,8.40
2023-03-07T03:55:14.361Z,7.97
2023-03-07T03:56:46.196Z,7.35
2023-03-07T03:58:17.913Z,8.23
2023-03-07T03:59:50.262Z,7.80
2023-03-07T04:01:25.518Z,7.55
2023-03-07T04:02:57.493Z,6.95
2023-03-07T04:04:29.075Z,7.13
2023-03-07T04:06:06.472Z,8.85
2023-03-07T04:07:38.098Z,6.72
2023-03-07T04:09:10.300Z,7.50
2023-03-07T04:10:45.606Z,8.27
2023-03-07T04:12:17.330Z,7.05
2023-03-07T04:13:49.273Z,6.53
2023-03-07T04:15:21.255Z,6.75
2023-03-07T04:16:52.835Z,7.63
2023-03-07T04:18:25.199Z,7.97
2023-03-07T04:19:56.755Z,8.02
2023-03-07T04:21:28.453Z,6.82
2023-03-07T04:23:02.333Z,7.55
2023-03-07T04:24:34.000Z,7.40
2023-03-07T04:26:07.817Z,6.55
2023-03-07T04:27:39.469Z,7.28
2023-03-07T04:29:11.388Z,7.03
2023-03-07T04:30:49.879Z,7.25
2023-03-07T04:32:22.474Z,7.63
2023-03-07T04:33:56.492Z,6.53
2023-03-07T04:35:28.544Z,6.82
2023-03-07T04:37:00.236Z,7.28
2023-03-07T04:38:32.041Z,8.20
2023-03-07T04:40:04.019Z,7.82
2023-03-07T04:41:35.682Z,6.78
2023-03-07T04:43:27.267Z,7.05
2023-03-07T04:44:58.793Z,7.65
2023-03-07T04:46:30.497Z,6.50
2023-03-07T04:48:02.107Z,5.90
2023-03-07T04:49:34.310Z,6.22
2023-03-07T04:51:07.521Z,7.30
2023-03-07T04:52:39.162Z,6.47
2023-03-07T04:54:10.705Z,6.45
2023-03-07T04:55:42.357Z,6.68
2023-03-07T04:57:13.948Z,6.90
2023-03-07T04:58:45.803Z,6.78
2023-03-07T05:00:19.375Z,6.15
2023-03-07T05:01:51.927Z,6.03
2023-03-07T05:03:24.874Z,7.20
2023-03-07T05:04:56.462Z,6.95
2023-03-07T05:06:28.412Z,6.45
2023-03-07T05:08:00.098Z,6.57
2023-03-07T05:09:31.933Z,6.20
2023-03-07T05:11:04.880Z,5.85
2023-03-07T05:12:36.933Z,6.45
2023-03-07T05:14:09.559Z,5.68
2023-03-07T05:15:41.674Z,7.55
2023-03-07T05:17:13.779Z,7.07
2023-03-07T05:18:45.430Z,5.78
2023-03-07T05:20:17.786Z,6.93
2023-03-07T05:21:49.434Z,6.18
2023-03-07T05:23:21.905Z,6.38
2023-03-07T05:24:54.988Z,7.63
2023-03-07T05:26:27.008Z,6.75
2023-03-07T05:27:58.598Z,6.63
2023-03-07T05:29:30.245Z,6.47
2023-03-07T05:31:02.120Z,6.97
2023-03-07T05:32:34.061Z,6.80
2023-03-07T05:34:05.787Z,7.32
2023-03-07T05:35:38.286Z,6.43
2023-03-07T05:37:10.578Z,7.45
2023-03-07T05:38:42.175Z,6.47
2023-03-07T05:40:14.235Z,6.47
2023-03-07T05:41:49.966Z,7.65
2023-03-07T05:43:21.814Z,7.22
2023-03-07T05:44:53.483Z,6.95
2023-03-07T05:46:25.573Z,7.65
2023-03-07T05:47:57.382Z,7.15
2023-03-07T05:49:29.020Z,6.25
2023-03-07T05:51:03.715Z,7.20
2023-03-07T05:52:35.592Z,6.38
2023-03-07T05:54:07.244Z,6.95
2023-03-07T05:55:39.770Z,6.93
2023-03-07T05:57:11.381Z,6.18
2023-03-07T05:58:44.770Z,7.65
2023-03-07T06:00:17.104Z,7.72
2023-03-07T06:01:54.631Z,6.30
2023-03-07T06:03:26.287Z,7.38
2023-03-07T06:04:57.862Z,6.32
2023-03-07T06:06:29.529Z,6.90
2023-03-07T06:08:01.176Z,6.72
2023-03-07T06:09:32.763Z,6.93
2023-03-07T06:11:05.422Z,7.18
2023-03-07T06:12:39.717Z,8.02
2023-03-07T06:14:11.340Z,7.18
2023-03-07T06:15:43.003Z,7.10
2023-03-07T06:17:15.084Z,7.00
2023-03-07T06:18:47.084Z,7.90
2023-03-07T06:20:20.874Z,6.72
2023-03-07T06:21:52.809Z,6.22
2023-03-07T06:23:29.831Z,6.60
2023-03-07T06:25:01.788Z,6.40
2023-03-07T06:26:33.790Z,7.40
2023-03-07T06:28:05.412Z,7.53
2023-03-07T06:29:37.871Z,6.13
2023-03-07T06:31:14.394Z,6.07
2023-03-07T06:32:46.254Z,7.65
2023-03-07T06:34:17.933Z,9.30
2023-03-07T06:35:50.778Z,7.07
2023-03-07T06:37:22.534Z,7.65
2023-03-07T06:38:54.472Z,7.40
2023-03-07T06:40:26.596Z,6.95
2023-03-07T06:41:58.318Z,6.70
2023-03-07T06:43:30.055Z,6.40
2023-03-07T06:45:01.690Z,7.78
2023-03-07T06:46:34.027Z,7.60
2023-03-07T06:48:10.382Z,6.88
2023-03-07T06:49:42.293Z,7.93
2023-03-07T06:51:16.014Z,6.75
2023-03-07T06:52:51.549Z,7.75
2023-03-07T06:54:23.392Z,8.18
2023-03-07T06:55:55.679Z,8.63
2023-03-07T06:57:27.483Z,8.30
2023-03-07T06:58:59.170Z,7.20
2023-03-07T07:00:31.541Z,7.97
2023-03-07T07:02:03.684Z,8.82
2023-03-07T07:03:35.634Z,8.07
2023-03-07T07:05:07.723Z,7.60
2023-03-07T07:06:41.828Z,7.13
2023-03-07T07:08:13.474Z,7.78
2023-03-07T07:09:45.531Z,8.88
2023-03-07T07:11:17.195Z,6.45
2023-03-07T07:12:49.166Z,6.03
2023-03-07T07:14:21.935Z,7.32
2023-03-07T07:15:54.115Z,8.13
2023-03-07T07:17:25.722Z,6.80
2023-03-07T07:18:57.445Z,7.15
2023-03-07T07:20:29.120Z,7.82
2023-03-07T07:22:00.903Z,7.50
2023-03-07T07:23:32.711Z,7.40
2023-03-07T07:25:05.337Z,5.93
2023-03-07T07:26:37.262Z,6.90
2023-03-07T07:28:09.031Z,6.38
2023-03-07T07:29:40.841Z,6.90
2023-03-07T07:31:13.805Z,6.60
2023-03-07T07:32:45.936Z,6.03
2023-03-07T07:34:17.686Z,7.97
2023-03-07T07:35:49.374Z,7.35
2023-03-07T07:37:21.214Z,6.90
2023-03-07T07:38:53.533Z,8.65
2023-03-07T07:40:25.269Z,7.75
2023-03-07T07:41:57.054Z,6.65
2023-03-07T07:43:31.495Z,6.38
2023-03-07T07:45:13.285Z,6.95
2023-03-07T07:46:44.866Z,7.43
2023-03-07T07:48:16.457Z,7.60
2023-03-07T07:49:48.744Z,7.07
2023-03-07T07:51:20.671Z,5.68
2023-03-07T07:52:53.493Z,6.38
2023-03-07T07:54:25.789Z,7.65
2023-03-07T07:55:58.154Z,6.72
2023-03-07T07:57:30.064Z,8.15
2023-03-07T07:59:03.189Z,6.57
2023-03-07T08:00:34.920Z,6.50
2023-03-07T08:02:07.215Z,7.50
2023-03-07T08:03:38.942Z,6.85
2023-03-07T08:05:10.741Z,6.60
2023-03-07T08:06:44.166Z,7.25
2023-03-07T08:08:17.095Z,6.60
2023-03-07T08:09:48.746Z,6.72
2023-03-07T08:11:21.242Z,8.30
2023-03-07T08:12:52.917Z,7.05
2023-03-07T08:14:24.524Z,6.80
2023-03-07T08:15:56.165Z,7.00
2023-03-07T08:17:30.612Z,7.35
2023-03-07T08:19:02.372Z,7.68
2023-03-07T08:20:34.276Z,8.32
2023-03-07T08:22:06.126Z,7.65
2023-03-07T08:23:37.804Z,7.78
2023-03-07T08:25:17.449Z,7.13
2023-03-07T08:26:49.074Z,7.03
2023-03-07T08:28:20.724Z,6.45
2023-03-07T08:29:52.312Z,6.45
2023-03-07T08:31:24.847Z,7.10
2023-03-07T08:32:57.497Z,6.32
2023-03-07T08:34:29.382Z,6.57
2023-03-07T08:36:01.054Z,6.43
2023-03-07T08:37:32.821Z,7.20
2023-03-07T08:39:04.950Z,6.95
2023-03-07T08:40:36.677Z,8.75
2023-03-07T08:42:08.447Z,8.30
2023-03-07T08:43:40.272Z,7.65
2023-03-07T08:45:12.484Z,7.00
2023-03-07T08:46:44.085Z,7.38
2023-03-07T08:48:15.696Z,7.10
2023-03-07T08:49:47.401Z,7.72
2023-03-07T08:51:19.111Z,6.68
2023-03-07T08:52:51.525Z,7.30
2023-03-07T08:54:23.077Z,6.80
2023-03-07T08:55:54.705Z,6.70
2023-03-07T08:57:26.294Z,5.82
2023-03-07T08:58:57.957Z,7.03
2023-03-07T09:00:29.648Z,6.47
2023-03-07T09:02:01.252Z,6.55
2023-03-07T09:03:33.353Z,7.53
2023-03-07T09:05:05.520Z,7.75
2023-03-07T09:06:37.332Z,6.68
2023-03-07T09:08:09.137Z,6.90
2023-03-07T09:09:40.794Z,7.10
2023-03-07T09:11:12.347Z,5.93
2023-03-07T09:12:44.398Z,6.63
2023-03-07T09:14:16.158Z,6.93
2023-03-07T09:15:47.784Z,7.30
2023-03-07T09:17:19.609Z,8.00
2023-03-07T09:18:51.419Z,7.70
2023-03-07T09:20:23.598Z,6.70
2023-03-07T09:21:55.477Z,6.95
2023-03-07T09:23:27.183Z,7.45
2023-03-07T09:24:58.889Z,7.05
2023-03-07T09:26:30.504Z,6.38
2023-03-07T09:28:02.117Z,6.07
2023-03-07T09:29:33.738Z,6.38
2023-03-07T09:31:13.127Z,5.97
2023-03-07T09:32:45.248Z,7.38
2023-03-07T09:34:17.266Z,6.72
2023-03-07T09:35:48.875Z,5.70
2023-03-07T09:37:20.549Z,6.13
2023-03-07T09:38:52.162Z,6.18
2023-03-07T09:40:26.945Z,5.93
2023-03-07T09:42:04.368Z,5.30
2023-03-07T09:43:59.099Z,5.88
2023-03-07T09:46:27.024Z,6.50
2023-03-07T09:48:07.580Z,6.20
2023-03-07T09:49:46.119Z,5.18
2023-03-07T09:51:24.036Z,5.85
2023-03-07T09:53:02.911Z,6.05
2023-03-07T09:54:43.517Z,6.30
2023-03-07T09:56:32.612Z,6.07
2023-03-07T09:58:16.145Z,5.90
2023-03-07T09:59:58.098Z,5.70
2023-03-07T10:01:34.833Z,5.38
2023-03-07T10:03:09.590Z,5.65
2023-03-07T10:05:05.851Z,6.35
2023-03-07T10:06:42.796Z,5.68
2023-03-07T10:08:21.096Z,6.15
2023-03-07T10:09:57.517Z,5.88
2023-03-07T10:11:55.491Z,5.80
2023-03-07T10:13:44.353Z,4.60
2023-03-07T10:15:15.996Z,6.57
2023-03-07T10:17:11.137Z,6.15
2023-03-07T10:18:51.121Z,6.60
2023-03-07T10:20:25.626Z,7.00
2023-03-07T10:21:57.371Z,5.63
2023-03-07T10:23:32.817Z,5.03
2023-03-07T10:25:39.512Z,5.80
2023-03-07T10:27:13.207Z,5.82
2023-03-07T10:28:46.302Z,6.40
2023-03-07T10:30:20.966Z,5.25
2023-03-07T10:31:56.776Z,7.25
2023-03-07T10:33:30.452Z,5.72
2023-03-07T10:35:24.318Z,6.72
2023-03-07T10:37:14.246Z,5.75
2023-03-07T10:38:56.491Z,5.60
2023-03-07T10:40:59.980Z,7.28
2023-03-07T10:42:36.801Z,5.25
2023-03-07T10:44:16.126Z,5.95
2023-03-07T10:45:47.932Z,5.60
2023-03-07T10:47:25.671Z,6.05
2023-03-07T10:49:16.565Z,5.38
2023-03-07T10:51:04.563Z,6.20
2023-03-07T10:52:41.259Z,5.90
2023-03-07T10:54:17.899Z,6.50
2023-03-07T10:55:49.611Z,6.10
2023-03-07T10:57:27.925Z,6.10
2023-03-07T10:59:10.682Z,5.38
2023-03-07T11:00:46.818Z,6.18
2023-03-07T11:02:44.585Z,5.80
2023-03-07T11:04:24.634Z,6.10
2023-03-07T11:05:56.294Z,5.75
2023-03-07T11:07:28.491Z,6.43
2023-03-07T11:09:29.859Z,6.55
2023-03-07T11:12:45.163Z,6.15
2023-03-07T11:14:18.851Z,6.78
2023-03-07T11:15:57.893Z,6.03
2023-03-07T11:17:42.806Z,7.10
2023-03-07T11:19:34.798Z,7.05
2023-03-07T11:21:06.436Z,5.97
2023-03-07T11:22:38.093Z,6.80
2023-03-07T11:24:51.382Z,7.53
2023-03-07T11:26:23.033Z,7.55
2023-03-07T11:27:56.506Z,7.13
2023-03-07T11:29:29.221Z,7.00
2023-03-07T11:31:13.224Z,6.70
2023-03-07T11:32:53.453Z,7.10
2023-03-07T11:34:37.376Z,7.55
2023-03-07T11:36:16.606Z,6.55
2023-03-07T11:38:45.590Z,7.60
2023-03-07T11:40:34.460Z,6.88
2023-03-07T11:42:32.639Z,6.85
2023-03-07T11:44:23.125Z,5.90
2023-03-07T11:46:11.990Z,6.70
2023-03-07T11:47:55.573Z,7.07
2023-03-07T11:49:54.844Z,8.10
2023-03-07T11:51:55.748Z,6.10
2023-03-07T11:53:45.634Z,7.57
2023-03-07T11:55:55.427Z,7.53
2023-03-07T11:57:59.273Z,6.95
2023-03-07T11:59:43.081Z,7.90
2023-03-07T12:01:40.156Z,8.65
2023-03-07T12:03:26.787Z,7.50
2023-03-07T12:05:07.431Z,8.23
2023-03-07T12:06:56.014Z,7.38
2023-03-07T12:09:05.065Z,6.93
2023-03-07T12:10:36.636Z,7.93
2023-03-07T12:12:27.594Z,7.18
2023-03-07T12:14:26.953Z,6.63
2023-03-07T12:16:13.840Z,6.93
2023-03-07T12:18:18.139Z,6.85
2023-03-07T12:20:01.604Z,6.65
2023-03-07T12:22:01.245Z,7.88
2023-03-07T12:23:42.320Z,7.40
2023-03-07T12:25:18.667Z,6.63
2023-03-07T12:27:02.164Z,7.88
2023-03-07T12:28:44.632Z,8.20
2023-03-07T12:30:21.890Z,7.13
2023-03-07T12:31:57.790Z,6.40
2023-03-07T12:35:19.180Z,5.80
2023-03-07T12:37:17.031Z,6.43
2023-03-07T12:38:57.669Z,7.03
2023-03-07T12:40:36.959Z,7.57
2023-03-07T12:42:25.141Z,7.97
2023-03-07T12:44:03.672Z,5.47
2023-03-07T12:46:00.373Z,6.30
2023-03-07T12:48:09.186Z,7.93
2023-03-07T12:49:53.971Z,4.40
2023-03-07T12:51:36.602Z,6.00
2023-03-07T12:53:22.582Z,6.03
2023-03-07T12:55:23.136Z,5.90
2023-03-07T12:56:58.379Z,6.10
2023-03-07T12:58:50.172Z,5.20
2023-03-07T13:00:23.471Z,6.15
2023-03-07T13:02:06.847Z,5.20
2023-03-07T13:03:41.442Z,5.32
2023-03-07T13:05:21.451Z,5.60
2023-03-07T13:06:59.846Z,4.60
2023-03-07T13:08:32.159Z,5.38
2023-03-07T13:10:06.968Z,6.57
2023-03-07T13:12:16.252Z,5.00
2023-03-07T13:13:49.078Z,4.88
2023-03-07T13:15:25.841Z,4.90
2023-03-07T13:16:57.647Z,4.80
2023-03-07T13:18:31.606Z,5.50
2023-03-07T13:20:04.983Z,4.78
2023-03-07T13:21:36.743Z,5.55
2023-03-07T13:23:28.060Z,5.40
2023-03-07T13:25:21.377Z,4.80
2023-03-07T13:26:56.565Z,4.45
2023-03-07T13:28:34.382Z,5.78
2023-03-07T13:30:30.805Z,5.85
2023-03-07T13:32:02.489Z,4.32
2023-03-07T13:33:34.167Z,5.53
2023-03-07T13:35:09.545Z,5.55
2023-03-07T13:36:41.240Z,5.60
2023-03-07T13:38:49.679Z,5.70
2023-03-07T13:40:26.101Z,4.70
2023-03-07T13:41:57.742Z,5.63
2023-03-07T13:43:29.313Z,4.32
2023-03-07T13:45:01.051Z,5.03
2023-03-07T13:46:38.522Z,6.13
2023-03-07T13:48:12.733Z,5.13
2023-03-07T13:49:45.523Z,5.65
2023-03-07T13:51:17.341Z,5.70
2023-03-07T13:52:49.162Z,5.70
2023-03-07T13:54:20.923Z,5.55
2023-03-07T13:56:20.399Z,6.18
2023-03-07T13:57:53.157Z,5.25
2023-03-07T13:59:28.282Z,5.22
2023-03-07T14:01:04.309Z,4.97
2023-03-07T14:02:39.924Z,5.28
2023-03-07T14:04:14.838Z,4.55
2023-03-07T14:05:47.505Z,6.85
2023-03-07T14:07:37.226Z,4.68
2023-03-07T14:09:15.717Z,4.90
2023-03-07T14:10:48.335Z,5.85
2023-03-07T14:12:31.987Z,5.45
2023-03-07T14:14:27.774Z,4.57
2023-03-07T14:16:05.109Z,4.80
2023-03-07T14:17:55.652Z,4.72
2023-03-07T14:19:54.073Z,5.78
2023-03-07T14:21:29.278Z,5.13
2023-03-07T14:23:25.524Z,5.03
2023-03-07T14:25:14.416Z,4.70
2023-03-07T14:26:52.253Z,4.43
2023-03-07T14:28:29.434Z,5.22
2023-03-07T14:30:01.047Z,5.20
2023-03-07T14:31:41.962Z,4.50
2023-03-07T14:33:17.694Z,5.05
2023-03-07T14:34:49.423Z,4.32
2023-03-07T14:36:25.470Z,5.35
2023-03-07T14:37:57.207Z,5.28
2023-03-07T14:39:52.198Z,5.70
2023-03-07T14:41:46.095Z,5.13
2023-03-07T14:43:47.288Z,4.00
2023-03-07T14:45:41.891Z,4.18
2023-03-07T14:47:22.415Z,4.20
2023-03-07T14:49:02.289Z,4.70
2023-03-07T14:50:35.833Z,4.55
2023-03-07T14:52:29.670Z,5.30
2023-03-07T14:54:08.073Z,5.18
2023-03-07T14:55:43.127Z,4.57
2023-03-07T14:57:25.606Z,4.82
2023-03-07T14:59:03.007Z,4.97
2023-03-07T15:00:35.886Z,4.65
2023-03-07T15:02:18.407Z,4.60
2023-03-07T15:03:52.497Z,4.72
2023-03-07T15:05:25.582Z,5.25
2023-03-07T15:07:04.443Z,4.03
2023-03-07T15:08:38.303Z,4.75
2023-03-07T15:10:19.852Z,4.78
2023-03-07T15:12:07.398Z,3.58
2023-03-07T15:13:46.465Z,4.32
2023-03-07T15:15:24.040Z,4.50
2023-03-07T15:17:03.486Z,4.45
2023-03-07T15:18:45.805Z,4.55
2023-03-07T15:22:01.367Z,4.57
2023-03-07T15:23:33.736Z,3.88
2023-03-07T15:25:26.392Z,3.53
2023-03-07T15:26:59.743Z,3.25
2023-03-07T15:28:34.773Z,3.72
2023-03-07T15:30:23.089Z,5.07
2023-03-07T15:32:04.012Z,3.03
2023-03-07T15:33:35.961Z,4.38
2023-03-07T15:35:07.582Z,4.05
2023-03-07T15:36:39.602Z,4.20
2023-03-07T15:38:23.441Z,4.28
2023-03-07T15:40:22.474Z,3.97
2023-03-07T15:42:08.293Z,3.95
2023-03-07T15:43:39.895Z,4.88
2023-03-07T15:45:31.373Z,5.05
2023-03-07T15:47:21.814Z,4.55
2023-03-07T15:48:54.041Z,4.10
2023-03-07T15:50:27.177Z,4.43
2023-03-07T15:52:03.025Z,3.88
2023-03-07T15:53:40.481Z,4.55
2023-03-07T15:55:20.932Z,4.15
2023-03-07T15:56:57.419Z,3.78
2023-03-07T15:58:30.129Z,3.42
2023-03-07T16:00:06.743Z,3.55
2023-03-07T16:01:38.493Z,4.00
2023-03-07T16:03:27.169Z,3.58
2023-03-07T16:04:59.772Z,3.25
2023-03-07T16:06:45.299Z,4.15
2023-03-07T16:08:19.918Z,4.32
2023-03-07T16:09:51.586Z,4.07
2023-03-07T16:11:23.285Z,3.80
2023-03-07T16:12:55.279Z,4.45
2023-03-07T16:14:31.756Z,3.97
2023-03-07T16:16:09.139Z,4.13
2023-03-07T16:17:41.775Z,3.90
2023-03-07T16:19:13.434Z,4.13
2023-03-07T16:20:45.087Z,4.47
2023-03-07T16:22:19.017Z,4.00
2023-03-07T16:23:51.006Z,4.18
2023-03-07T16:25:24.439Z,4.05
2023-03-07T16:26:57.814Z,5.25
2023-03-07T16:28:29.987Z,4.63
2023-03-07T16:30:01.800Z,5.13
2023-03-07T16:31:33.615Z,4.40
2023-03-07T16:33:05.538Z,6.40
2023-03-07T16:34:37.242Z,6.13
2023-03-07T16:36:11.151Z,4.50
2023-03-07T16:37:42.931Z,4.22
2023-03-07T16:39:15.413Z,4.50
2023-03-07T16:40:47.177Z,4.60
2023-03-07T16:42:22.243Z,4.60
2023-03-07T16:43:56.306Z,5.10
2023-03-07T16:45:31.212Z,5.32
2023-03-07T16:47:15.514Z,5.70
2023-03-07T16:48:47.431Z,5.82
2023-03-07T16:50:21.583Z,4.80
2023-03-07T16:52:05.218Z,4.40
2023-03-07T16:53:38.061Z,4.85
2023-03-07T16:55:13.779Z,4.55
2023-03-07T16:56:49.346Z,4.70
2023-03-07T16:58:27.530Z,4.22
2023-03-07T16:59:59.628Z,4.57
2023-03-07T17:01:31.416Z,4.63
2023-03-07T17:03:03.790Z,4.22
2023-03-07T17:04:35.502Z,3.80
2023-03-07T17:06:12.195Z,4.70
2023-03-07T17:07:44.144Z,5.07
2023-03-07T17:09:15.791Z,5.25
2023-03-07T17:10:47.736Z,4.50
2023-03-07T17:12:23.161Z,6.43
2023-03-07T17:13:59.518Z,6.82
2023-03-07T17:15:31.504Z,6.47
2023-03-07T17:17:04.763Z,4.53
2023-03-07T17:18:36.607Z,5.68
2023-03-07T17:20:12.181Z,5.38
2023-03-07T17:21:43.799Z,5.15
2023-03-07T17:23:15.545Z,5.32
2023-03-07T17:24:47.214Z,5.45
2023-03-07T17:26:26.356Z,6.18
2023-03-07T17:28:05.948Z,4.38
2023-03-07T17:29:41.237Z,5.22
2023-03-07T17:31:13.552Z,5.63
2023-03-07T17:32:45.364Z,5.75
2023-03-07T17:34:37.008Z,6.57
2023-03-07T17:36:11.716Z,5.13
2023-03-07T17:37:45.237Z,6.50
2023-03-07T17:39:17.596Z,6.32
2023-03-07T17:40:54.821Z,5.50
2023-03-07T17:42:26.548Z,5.28
2023-03-07T17:43:58.261Z,5.20
2023-03-07T17:45:30.100Z,4.90
2023-03-07T17:47:01.806Z,5.28
2023-03-07T17:48:35.709Z,5.28
2023-03-07T17:50:09.180Z,5.30
2023-03-07T17:51:40.847Z,6.85
2023-03-07T17:53:12.773Z,6.03
2023-03-07T17:54:45.961Z,6.78
2023-03-07T17:56:17.725Z,9.32
2023-03-07T17:57:49.515Z,6.88
2023-03-07T17:59:21.314Z,4.50
2023-03-07T18:00:53.130Z,5.28
2023-03-07T18:02:25.874Z,5.22
2023-03-07T18:03:58.396Z,5.05
2023-03-07T18:05:30.210Z,5.18
2023-03-07T18:07:01.954Z,6.28
2023-03-07T18:08:34.268Z,5.47
2023-03-07T18:10:08.867Z,6.05
2023-03-07T18:11:40.658Z,5.65
2023-03-07T18:13:12.614Z,6.03
2023-03-07T18:14:44.424Z,5.53
2023-03-07T18:16:16.208Z,4.57
2023-03-07T18:17:49.462Z,6.03
2023-03-07T18:19:26.713Z,6.20
2023-03-07T18:21:00.651Z,5.07
2023-03-07T18:22:32.408Z,7.07
2023-03-07T18:24:17.402Z,5.80
2023-03-07T18:25:56.762Z,5.85
2023-03-07T18:27:28.431Z,7.03
2023-03-07T18:29:00.215Z,6.82
2023-03-07T18:30:32.019Z,7.28
2023-03-07T18:32:03.944Z,5.82
2023-03-07T18:33:37.434Z,6.53
2023-03-07T18:35:09.727Z,6.25
2023-03-07T18:36:42.519Z,6.10
2023-03-07T18:38:14.190Z,6.65
2023-03-07T18:39:45.997Z,6.97
2023-03-07T18:41:20.731Z,8.20
2023-03-07T18:42:52.489Z,9.90
2023-03-07T18:44:24.137Z,9.32
2023-03-07T18:45:55.865Z,8.60
2023-03-07T18:47:27.585Z,7.03
2023-03-07T18:49:01.026Z,10.25
2023-03-07T18:50:32.800Z,8.90
2023-03-07T18:52:04.759Z,14.13
2023-03-07T18:53:37.624Z,8.90
2023-03-07T18:55:09.735Z,13.90
2023-03-07T18:56:42.763Z,9.18
2023-03-07T18:58:17.806Z,9.32
2023-03-07T18:59:50.222Z,8.20
2023-03-07T19:01:25.040Z,8.20
2023-03-07T19:02:56.796Z,8.95
2023-03-07T19:04:29.577Z,9.02
2023-03-07T19:06:01.399Z,10.75
2023-03-07T19:07:33.382Z,9.13
2023-03-07T19:09:05.600Z,12.38
2023-03-07T19:10:37.551Z,10.75
2023-03-07T19:12:09.519Z,22.88
2023-03-07T19:13:42.428Z,7.95
2023-03-07T19:15:14.280Z,7.80
2023-03-07T19:16:46.150Z,7.25
2023-03-07T19:18:17.899Z,7.93
2023-03-07T19:19:53.055Z,7.80
2023-03-07T19:21:26.888Z,8.25
2023-03-07T19:22:58.718Z,7.53
2023-03-07T19:24:30.579Z,8.68
2023-03-07T19:26:08.242Z,9.38
2023-03-07T19:27:39.996Z,10.32
2023-03-07T19:29:13.122Z,6.97
2023-03-07T19:30:45.085Z,9.57
2023-03-07T19:32:18.836Z,13.40
2023-03-07T19:33:51.734Z,10.88
2023-03-07T19:35:23.563Z,7.82
2023-03-07T19:36:55.263Z,8.27
2023-03-07T19:38:26.902Z,9.05
2023-03-07T19:39:58.717Z,9.98
2023-03-07T19:41:31.777Z,9.75
2023-03-07T19:43:03.622Z,10.95
2023-03-07T19:44:35.342Z,15.60
2023-03-07T19:46:09.395Z,9.75
2023-03-07T19:47:41.162Z,9.30
2023-03-07T19:49:14.395Z,7.60
2023-03-07T19:50:46.603Z,7.35
2023-03-07T19:52:18.508Z,6.05
2023-03-07T19:53:51.570Z,7.40
2023-03-07T19:55:25.136Z,7.38
2023-03-07T19:56:57.243Z,6.30
2023-03-07T19:58:29.015Z,7.35
2023-03-07T20:00:00.749Z,6.43
2023-03-07T20:01:32.590Z,5.75
2023-03-07T20:03:04.814Z,6.80
2023-03-07T20:04:36.551Z,6.75
2023-03-07T20:06:11.381Z,8.35
2023-03-07T20:07:43.283Z,6.07
2023-03-07T20:09:15.019Z,6.15
2023-03-07T20:10:47.009Z,6.05
2023-03-07T20:12:18.915Z,7.35
2023-03-07T20:13:50.757Z,7.05
2023-03-07T20:15:22.518Z,7.07
2023-03-07T20:16:54.334Z,5.70
2023-03-07T20:18:26.129Z,6.32
2023-03-07T20:19:58.380Z,5.68
2023-03-07T20:21:30.923Z,7.07
2023-03-07T20:23:02.695Z,6.13
2023-03-07T20:24:36.193Z,8.35
2023-03-07T20:26:10.798Z,8.80
2023-03-07T20:27:42.580Z,8.50
2023-03-07T20:29:14.612Z,8.80
2023-03-07T20:30:46.360Z,9.00
2023-03-07T20:32:18.805Z,7.45
2023-03-07T20:33:51.080Z,6.47
2023-03-07T20:35:23.694Z,7.65
2023-03-07T20:36:55.486Z,6.57
2023-03-07T20:38:27.190Z,7.53
2023-03-07T20:40:04.273Z,8.25
2023-03-07T20:41:36.499Z,6.75
2023-03-07T20:43:08.226Z,8.30
2023-03-07T20:44:40.037Z,7.32
2023-03-07T20:46:13.968Z,6.65
2023-03-07T20:47:45.894Z,7.57
2023-03-07T20:49:17.607Z,7.65
2023-03-07T20:50:50.361Z,7.32
2023-03-07T20:52:23.667Z,6.55
2023-03-07T20:54:05.167Z,5.80
2023-03-07T20:55:36.890Z,5.97
2023-03-07T20:57:08.700Z,6.00
2023-03-07T20:58:40.677Z,5.78
2023-03-07T21:00:13.860Z,6.38
2023-03-07T21:01:45.830Z,4.97
2023-03-07T21:03:17.879Z,6.57
2023-03-07T21:04:49.974Z,6.47
2023-03-07T21:06:22.208Z,5.75
2023-03-07T21:07:53.926Z,5.30
2023-03-07T21:09:25.815Z,5.90
2023-03-07T21:11:09.058Z,6.22
2023-03-07T21:12:41.000Z,6.68
2023-03-07T21:14:14.100Z,6.03
2023-03-07T21:15:53.180Z,5.85
2023-03-07T21:17:25.192Z,4.53